createdAt,value
2019-01-26T00:00:46.450Z,-0.80
2019-01-26T00:03:14.926Z,-0.80
2019-01-26T00:05:43.338Z,-0.90
2019-01-26T00:08:11.809Z,-0.90
2019-01-26T00:10:40.226Z,-0.90
2019-01-26T00:13:08.646Z,-0.90
2019-01-26T00:15:37.122Z,-0.90
2019-01-26T00:18:06.893Z,-0.90
2019-01-26T00:20:36.519Z,-0.90
2019-01-26T00:23:05.249Z,-0.90
2019-01-26T00:25:33.661Z,-0.90
2019-01-26T00:28:02.090Z,-0.90
2019-01-26T00:30:30.575Z,-0.90
2019-01-26T00:32:58.998Z,-0.90
2019-01-26T00:35:27.414Z,-0.90
2019-01-26T00:37:55.836Z,-0.90
2019-01-26T00:40:24.245Z,-1.00
2019-01-26T00:42:52.665Z,-1.00
2019-01-26T00:45:21.078Z,-1.00
2019-01-26T00:47:49.503Z,-1.00
2019-01-26T00:50:17.914Z,-1.00
2019-01-26T00:52:46.326Z,-0.90
2019-01-26T00:55:14.909Z,-1.00
2019-01-26T00:57:43.318Z,-0.90
2019-01-26T01:00:15.038Z,-1.00
2019-01-26T01:02:43.453Z,-1.00
2019-01-26T01:05:12.202Z,-1.00
2019-01-26T01:07:40.627Z,-1.00
2019-01-26T01:10:12.235Z,-1.00
2019-01-26T01:12:40.622Z,-0.90
2019-01-26T01:15:12.932Z,-0.90
2019-01-26T01:17:41.343Z,-0.90
2019-01-26T01:20:11.090Z,-0.90
2019-01-26T01:22:39.719Z,-0.90
2019-01-26T01:25:10.866Z,-0.90
2019-01-26T01:27:39.283Z,-0.90
2019-01-26T01:30:16.642Z,-0.90
2019-01-26T01:32:45.129Z,-0.90
2019-01-26T01:35:13.545Z,-0.90
2019-01-26T01:37:41.961Z,-0.90
2019-01-26T01:40:12.619Z,-0.90
2019-01-26T01:42:41.470Z,-0.90
2019-01-26T01:45:13.106Z,-0.90
2019-01-26T01:47:41.603Z,-0.90
2019-01-26T01:50:10.582Z,-0.90
2019-01-26T01:52:39.187Z,-0.90
2019-01-26T01:55:09.742Z,-0.90
2019-01-26T01:57:38.181Z,-0.80
2019-01-26T02:00:15.278Z,-0.80
2019-01-26T02:02:43.690Z,-0.70
2019-01-26T02:05:12.185Z,-0.70
2019-01-26T02:07:40.594Z,-0.70
2019-01-26T02:10:12.054Z,-0.70
2019-01-26T02:12:40.465Z,-0.70
2019-01-26T02:15:10.630Z,-0.70
2019-01-26T02:17:39.126Z,-0.70
2019-01-26T02:20:10.749Z,-0.70
2019-01-26T02:22:39.161Z,-0.60
2019-01-26T02:25:07.569Z,-0.60
2019-01-26T02:27:35.981Z,-0.60
2019-01-26T02:30:07.577Z,-0.60
2019-01-26T02:32:35.996Z,-0.60
2019-01-26T02:35:05.746Z,-0.60
2019-01-26T02:37:34.170Z,-0.60
2019-01-26T02:40:02.820Z,-0.50
2019-01-26T02:42:31.317Z,-0.50
2019-01-26T02:44:59.731Z,-0.50
2019-01-26T02:47:28.150Z,-0.60
2019-01-26T02:49:56.557Z,-0.50
2019-01-26T02:52:24.981Z,-0.60
2019-01-26T02:54:53.392Z,-0.60
2019-01-26T02:57:21.813Z,-0.50
2019-01-26T02:59:50.229Z,-0.50
2019-01-26T03:02:18.757Z,-0.50
2019-01-26T03:04:47.166Z,-0.50
2019-01-26T03:07:15.584Z,-0.50
2019-01-26T03:09:43.993Z,-0.50
2019-01-26T03:12:12.400Z,-0.50
2019-01-26T03:14:40.810Z,-0.40
2019-01-26T03:17:09.294Z,-0.40
2019-01-26T03:19:37.697Z,-0.50
2019-01-26T03:22:06.109Z,-0.50
2019-01-26T03:24:34.517Z,-0.40
2019-01-26T03:27:02.946Z,-0.50
2019-01-26T03:29:31.356Z,-0.40
2019-01-26T03:31:59.777Z,-0.30
2019-01-26T03:34:28.257Z,-0.30
2019-01-26T03:36:56.670Z,-0.30
2019-01-26T03:39:25.107Z,-0.30
2019-01-26T03:41:53.570Z,-0.30
2019-01-26T03:44:21.977Z,-0.30
2019-01-26T03:46:50.384Z,-0.30
2019-01-26T03:49:18.811Z,-0.30
2019-01-26T03:51:47.219Z,-0.30
2019-01-26T03:54:15.629Z,-0.20
2019-01-26T03:56:44.037Z,-0.20
2019-01-26T03:59:12.469Z,-0.20
2019-01-26T04:01:41.126Z,-0.20
2019-01-26T04:04:09.583Z,-0.20
2019-01-26T04:06:38.102Z,-0.20
2019-01-26T04:09:08.254Z,-0.20
2019-01-26T04:11:36.662Z,-0.10
2019-01-26T04:14:05.509Z,-0.10
2019-01-26T04:16:33.918Z,-0.10
2019-01-26T04:19:02.333Z,-0.10
2019-01-26T04:21:30.976Z,-0.10
2019-01-26T04:23:59.698Z,0.00
2019-01-26T04:26:28.108Z,0.00
2019-01-26T04:28:56.528Z,0.00
2019-01-26T04:31:24.933Z,0.00
2019-01-26T04:33:53.357Z,0.00
2019-01-26T04:36:21.761Z,0.10
2019-01-26T04:38:50.168Z,0.10
2019-01-26T04:41:18.575Z,0.10
2019-01-26T04:43:47.060Z,0.10
2019-01-26T04:46:15.662Z,0.10
2019-01-26T04:48:44.157Z,0.10
2019-01-26T04:51:12.572Z,0.10
2019-01-26T04:53:40.973Z,0.20
2019-01-26T04:56:09.381Z,0.10
2019-01-26T04:58:37.800Z,0.20
2019-01-26T05:01:06.219Z,0.20
2019-01-26T05:03:34.696Z,0.30
2019-01-26T05:06:03.099Z,0.20
2019-01-26T05:08:31.506Z,0.30
2019-01-26T05:10:59.909Z,0.30
2019-01-26T05:13:28.324Z,0.30
2019-01-26T05:15:56.729Z,0.30
2019-01-26T05:18:25.250Z,0.30
2019-01-26T05:20:54.033Z,0.30
2019-01-26T05:23:22.607Z,0.40
2019-01-26T05:25:51.395Z,0.40
2019-01-26T05:28:19.780Z,0.30
2019-01-26T05:30:48.186Z,0.40
2019-01-26T05:33:16.657Z,0.40
2019-01-26T05:35:45.134Z,0.40
2019-01-26T05:38:13.538Z,0.40
2019-01-26T05:40:41.956Z,0.50
2019-01-26T05:43:10.393Z,0.40
2019-01-26T05:45:38.878Z,0.50
2019-01-26T05:48:07.285Z,0.50
2019-01-26T05:50:35.708Z,0.50
2019-01-26T05:53:04.279Z,0.60
2019-01-26T05:55:32.690Z,0.50
2019-01-26T05:58:01.102Z,0.50
2019-01-26T06:00:31.212Z,0.60
2019-01-26T06:02:59.621Z,0.60
2019-01-26T06:05:28.097Z,0.60
2019-01-26T06:07:56.506Z,0.60
2019-01-26T06:10:24.950Z,0.60
2019-01-26T06:12:53.421Z,0.60
2019-01-26T06:15:22.006Z,0.60
2019-01-26T06:17:54.941Z,0.60
2019-01-26T06:20:20.757Z,0.60
2019-01-26T06:22:49.165Z,0.60
2019-01-26T06:25:19.614Z,0.60
2019-01-26T06:27:48.465Z,0.70
2019-01-26T06:30:23.508Z,0.70
2019-01-26T06:32:52.076Z,0.60
2019-01-26T06:35:20.517Z,0.70
2019-01-26T06:37:48.925Z,0.70
2019-01-26T06:40:18.969Z,0.70
2019-01-26T06:42:47.454Z,0.70
2019-01-26T06:45:18.007Z,0.70
2019-01-26T06:47:46.590Z,0.70
2019-01-26T06:50:19.386Z,0.80
2019-01-26T06:52:47.836Z,0.80
2019-01-26T06:55:16.274Z,0.80
2019-01-26T06:57:44.778Z,0.80
2019-01-26T07:00:18.689Z,0.80
2019-01-26T07:02:47.157Z,0.80
2019-01-26T07:05:17.482Z,0.90
2019-01-26T07:07:45.894Z,0.90
2019-01-26T07:10:14.379Z,0.80
2019-01-26T07:12:42.797Z,0.90
2019-01-26T07:15:12.710Z,0.90
2019-01-26T07:17:41.150Z,0.90
2019-01-26T07:20:12.393Z,0.90
2019-01-26T07:22:40.802Z,0.80
2019-01-26T07:25:09.545Z,0.90
2019-01-26T07:27:37.949Z,0.90
2019-01-26T07:30:20.485Z,0.90
2019-01-26T07:32:48.902Z,0.90
2019-01-26T07:35:17.377Z,0.90
2019-01-26T07:37:45.780Z,0.90
2019-01-26T07:40:20.138Z,0.90
2019-01-26T07:42:48.605Z,1.00
2019-01-26T07:45:17.565Z,1.00
2019-01-26T07:47:46.058Z,1.00
2019-01-26T07:50:23.233Z,1.00
2019-01-26T07:52:51.642Z,1.10
2019-01-26T07:55:20.298Z,1.00
2019-01-26T07:57:48.833Z,1.10
2019-01-26T08:00:19.974Z,1.10
2019-01-26T08:02:48.380Z,1.20
2019-01-26T08:05:17.049Z,1.20
2019-01-26T08:07:45.453Z,1.20
2019-01-26T08:10:16.762Z,1.20
2019-01-26T08:12:45.332Z,1.30
2019-01-26T08:15:16.385Z,1.40
2019-01-26T08:17:45.134Z,1.40
2019-01-26T08:20:16.189Z,1.30
2019-01-26T08:22:44.667Z,1.30
2019-01-26T08:25:13.077Z,1.30
2019-01-26T08:27:41.480Z,1.30
2019-01-26T08:30:15.633Z,1.40
2019-01-26T08:32:44.046Z,1.40
2019-01-26T08:35:12.614Z,1.40
2019-01-26T08:37:41.023Z,1.40
2019-01-26T08:40:12.369Z,1.50
2019-01-26T08:42:40.777Z,1.50
2019-01-26T08:45:11.426Z,1.50
2019-01-26T08:47:39.934Z,1.50
2019-01-26T08:50:16.997Z,1.60
2019-01-26T08:52:45.473Z,1.60
2019-01-26T08:55:18.220Z,1.60
2019-01-26T08:57:44.844Z,1.60
2019-01-26T09:00:18.601Z,1.70
2019-01-26T09:02:55.862Z,1.60
2019-01-26T09:05:26.127Z,1.70
2019-01-26T09:07:54.640Z,1.70
2019-01-26T09:10:23.486Z,1.70
2019-01-26T09:12:52.275Z,1.70
2019-01-26T09:15:22.187Z,1.70
2019-01-26T09:17:50.873Z,1.80
2019-01-26T09:20:19.865Z,1.70
2019-01-26T09:22:48.746Z,1.70
2019-01-26T09:25:17.413Z,1.80
2019-01-26T09:27:46.270Z,1.80
2019-01-26T09:30:19.855Z,1.80
2019-01-26T09:32:48.560Z,1.90
2019-01-26T09:35:17.138Z,1.90
2019-01-26T09:37:45.617Z,1.90
2019-01-26T09:40:17.454Z,2.00
2019-01-26T09:42:45.865Z,2.00
2019-01-26T09:45:16.523Z,2.00
2019-01-26T09:47:45.266Z,2.10
2019-01-26T09:50:14.408Z,2.10
2019-01-26T09:52:42.818Z,2.10
2019-01-26T09:55:15.511Z,2.20
2019-01-26T09:57:43.925Z,2.20
2019-01-26T10:00:26.673Z,2.30
2019-01-26T10:02:55.434Z,2.40
2019-01-26T10:05:23.900Z,2.40
2019-01-26T10:07:52.384Z,2.40
2019-01-26T10:10:21.531Z,2.40
2019-01-26T10:12:50.314Z,2.40
2019-01-26T10:15:30.413Z,2.30
2019-01-26T10:17:58.821Z,2.40
2019-01-26T10:20:32.986Z,2.40
2019-01-26T10:23:01.404Z,2.50
2019-01-26T10:25:30.101Z,2.40
2019-01-26T10:27:58.989Z,2.40
2019-01-26T10:30:34.733Z,2.40
2019-01-26T10:33:03.381Z,2.50
2019-01-26T10:35:49.474Z,2.50
2019-01-26T10:38:17.885Z,2.40
2019-01-26T10:40:53.657Z,2.40
2019-01-26T10:43:23.714Z,2.50
2019-01-26T10:45:52.168Z,2.40
2019-01-26T10:48:20.723Z,2.40
2019-01-26T10:50:49.125Z,2.50
2019-01-26T10:53:17.735Z,2.60
2019-01-26T10:55:46.141Z,2.60
2019-01-26T10:58:14.551Z,2.60
2019-01-26T11:00:52.019Z,2.70
2019-01-26T11:03:20.489Z,2.80
2019-01-26T11:05:48.973Z,2.80
2019-01-26T11:08:17.422Z,2.90
2019-01-26T11:10:45.837Z,2.90
2019-01-26T11:13:14.241Z,2.90
2019-01-26T11:15:42.650Z,3.00
2019-01-26T11:18:11.057Z,3.00
2019-01-26T11:20:39.623Z,3.00
2019-01-26T11:23:27.415Z,3.00
2019-01-26T11:25:55.863Z,3.00
2019-01-26T11:28:25.505Z,3.10
2019-01-26T11:30:54.018Z,3.10
2019-01-26T11:33:22.431Z,3.20
2019-01-26T11:35:50.846Z,3.10
2019-01-26T11:38:19.256Z,3.20
2019-01-26T11:40:47.674Z,3.20
2019-01-26T11:43:16.082Z,3.20
2019-01-26T11:45:55.230Z,3.10
2019-01-26T11:48:28.175Z,3.00
2019-01-26T11:51:01.006Z,3.00
2019-01-26T11:53:29.495Z,3.10
2019-01-26T11:56:16.145Z,3.10
2019-01-26T11:58:44.618Z,3.10
2019-01-26T12:01:17.459Z,3.10
2019-01-26T12:03:47.513Z,3.00
2019-01-26T12:06:17.574Z,3.10
2019-01-26T12:08:46.146Z,3.20
2019-01-26T12:11:14.718Z,3.20
2019-01-26T12:13:43.423Z,3.20
2019-01-26T12:16:11.946Z,3.30
2019-01-26T12:18:40.849Z,3.30
2019-01-26T12:21:09.396Z,3.30
2019-01-26T12:23:37.878Z,3.40
2019-01-26T12:26:06.352Z,3.40
2019-01-26T12:28:34.956Z,3.40
2019-01-26T12:31:03.530Z,3.40
2019-01-26T12:33:32.032Z,3.60
2019-01-26T12:36:00.489Z,3.70
2019-01-26T12:38:28.969Z,3.80
2019-01-26T12:40:57.551Z,3.80
2019-01-26T12:43:25.958Z,3.80
2019-01-26T12:45:54.524Z,3.70
2019-01-26T12:48:23.001Z,3.60
2019-01-26T12:50:51.486Z,3.60
2019-01-26T12:53:19.982Z,3.50
2019-01-26T12:55:48.386Z,3.60
2019-01-26T12:58:16.802Z,3.70
2019-01-26T13:00:45.373Z,3.70
2019-01-26T13:03:13.857Z,3.70
2019-01-26T13:05:42.274Z,3.60
2019-01-26T13:08:10.829Z,3.60
2019-01-26T13:10:51.554Z,3.70
2019-01-26T13:13:20.038Z,3.70
2019-01-26T13:15:48.506Z,3.70
2019-01-26T13:18:16.991Z,3.70
2019-01-26T13:20:45.390Z,3.60
2019-01-26T13:23:13.816Z,3.60
2019-01-26T13:25:42.290Z,3.60
2019-01-26T13:28:10.828Z,3.60
2019-01-26T13:30:39.409Z,3.70
2019-01-26T13:33:07.892Z,3.70
2019-01-26T13:35:36.366Z,3.80
2019-01-26T13:38:05.039Z,3.90
2019-01-26T13:40:35.459Z,3.90
2019-01-26T13:43:04.094Z,4.00
2019-01-26T13:45:32.582Z,3.90
2019-01-26T13:48:01.163Z,4.00
2019-01-26T13:50:29.639Z,4.00
2019-01-26T13:52:58.181Z,4.20
2019-01-26T13:55:26.662Z,4.20
2019-01-26T13:57:55.134Z,4.30
2019-01-26T14:00:29.654Z,4.30
2019-01-26T14:02:58.122Z,4.30
2019-01-26T14:05:26.641Z,4.30
2019-01-26T14:11:35.548Z,4.30
2019-01-26T14:14:04.109Z,4.30
2019-01-26T14:16:32.523Z,4.20
2019-01-26T14:19:01.094Z,4.20
2019-01-26T14:21:29.633Z,4.20
2019-01-26T14:23:58.513Z,4.30
2019-01-26T14:26:27.093Z,4.20
2019-01-26T14:28:55.883Z,4.10
2019-01-26T14:31:24.425Z,4.10
2019-01-26T14:33:53.069Z,4.10
2019-01-26T14:36:21.965Z,4.10
2019-01-26T14:38:50.440Z,4.00
2019-01-26T14:41:18.913Z,3.90
2019-01-26T14:43:47.414Z,4.00
2019-01-26T14:46:16.094Z,3.90
2019-01-26T14:48:44.578Z,3.90
2019-01-26T14:51:13.340Z,3.80
2019-01-26T14:53:47.608Z,3.80
2019-01-26T14:56:12.161Z,3.80
2019-01-26T14:58:40.829Z,3.70
2019-01-26T15:01:09.625Z,3.70
2019-01-26T15:03:38.445Z,3.60
2019-01-26T15:06:07.130Z,3.60
2019-01-26T15:08:35.664Z,3.60
2019-01-26T15:11:04.333Z,3.50
2019-01-26T15:13:33.147Z,3.50
2019-01-26T15:16:02.700Z,3.50
2019-01-26T15:18:31.174Z,3.50
2019-01-26T15:20:59.689Z,3.50
2019-01-26T15:23:28.096Z,3.50
2019-01-26T15:25:56.821Z,3.50
2019-01-26T15:28:25.291Z,3.50
2019-01-26T15:30:54.110Z,3.40
2019-01-26T15:33:22.602Z,3.40
2019-01-26T15:35:51.097Z,3.40
2019-01-26T15:38:19.578Z,3.40
2019-01-26T15:40:47.987Z,3.40
2019-01-26T15:43:16.506Z,3.30
2019-01-26T15:45:45.150Z,3.30
2019-01-26T15:48:13.778Z,3.30
2019-01-26T15:50:42.666Z,3.30
2019-01-26T15:53:11.217Z,3.30
2019-01-26T15:55:39.617Z,3.30
2019-01-26T15:58:08.318Z,3.30
2019-01-26T16:00:42.187Z,3.20
2019-01-26T16:03:11.218Z,3.10
2019-01-26T16:05:39.770Z,3.00
2019-01-26T16:08:08.418Z,3.10
2019-01-26T16:10:38.476Z,3.10
2019-01-26T16:13:07.026Z,3.00
2019-01-26T16:15:37.647Z,2.90
2019-01-26T16:18:10.214Z,3.00
2019-01-26T16:20:38.790Z,3.10
2019-01-26T16:23:26.802Z,3.10
2019-01-26T16:25:53.045Z,3.10
2019-01-26T16:28:21.954Z,3.10
2019-01-26T16:34:07.028Z,3.20
2019-01-26T16:36:38.414Z,3.20
2019-01-26T16:39:08.849Z,3.10
2019-01-26T16:41:38.422Z,3.20
2019-01-26T16:44:13.584Z,3.10
2019-01-26T16:46:42.065Z,3.20
2019-01-26T16:49:11.533Z,3.20
2019-01-26T16:51:40.067Z,3.20
2019-01-26T16:54:09.412Z,3.20
2019-01-26T16:56:40.955Z,3.30
2019-01-26T16:59:13.365Z,3.30
2019-01-26T17:01:42.188Z,3.30
2019-01-26T17:04:10.897Z,3.20
2019-01-26T17:06:39.548Z,3.30
2019-01-26T17:09:08.660Z,3.20
2019-01-26T17:11:37.134Z,3.20
2019-01-26T17:14:05.789Z,3.20
2019-01-26T17:16:34.460Z,3.20
2019-01-26T17:19:03.367Z,3.20
2019-01-26T17:21:32.041Z,3.20
2019-01-26T17:24:00.662Z,3.20
2019-01-26T17:26:29.529Z,3.30
2019-01-26T17:28:58.049Z,3.20
2019-01-26T17:31:26.672Z,3.30
2019-01-26T17:33:55.389Z,3.30
2019-01-26T17:36:23.849Z,3.20
2019-01-26T17:38:52.513Z,3.20
2019-01-26T17:41:21.366Z,3.20
2019-01-26T17:43:50.140Z,3.10
2019-01-26T17:46:18.613Z,3.20
2019-01-26T17:48:47.258Z,3.20
2019-01-26T17:51:16.009Z,3.20
2019-01-26T17:53:44.787Z,3.20
2019-01-26T17:56:13.682Z,3.20
2019-01-26T17:58:42.413Z,3.20
2019-01-26T18:01:11.845Z,3.20
2019-01-26T18:03:40.950Z,3.20
2019-01-26T18:06:09.751Z,3.10
2019-01-26T18:08:38.487Z,3.10
2019-01-26T18:11:07.329Z,3.10
2019-01-26T18:13:36.213Z,3.20
2019-01-26T18:16:05.114Z,3.10
2019-01-26T18:18:33.889Z,3.20
2019-01-26T18:21:02.810Z,3.10
2019-01-26T18:23:31.918Z,3.20
2019-01-26T18:26:00.877Z,3.10
2019-01-26T18:28:29.701Z,3.10
2019-01-26T18:30:58.553Z,3.20
2019-01-26T18:33:27.341Z,3.20
2019-01-26T18:35:56.229Z,3.20
2019-01-26T18:38:25.214Z,3.20
2019-01-26T18:40:54.240Z,3.20
2019-01-26T18:43:23.313Z,3.30
2019-01-26T18:45:52.388Z,3.30
2019-01-26T18:48:21.296Z,3.40
2019-01-26T18:50:56.181Z,3.40
2019-01-26T18:53:21.177Z,3.40
2019-01-26T18:55:49.964Z,3.30
2019-01-26T18:58:18.998Z,3.30
2019-01-26T19:00:48.905Z,3.30
2019-01-26T19:03:32.653Z,3.40
2019-01-26T19:06:01.849Z,3.30
2019-01-26T19:08:32.069Z,3.30
2019-01-26T19:11:00.857Z,3.20
2019-01-26T19:13:29.657Z,3.20
2019-01-26T19:15:58.944Z,3.20
2019-01-26T19:18:27.835Z,3.20
2019-01-26T19:21:02.869Z,3.20
2019-01-26T19:23:27.457Z,3.30
2019-01-26T19:25:56.544Z,3.40
2019-01-26T19:28:25.489Z,3.40
2019-01-26T19:30:54.701Z,3.40
2019-01-26T19:33:23.646Z,3.40
2019-01-26T19:35:52.970Z,3.30
2019-01-26T19:38:22.082Z,3.40
2019-01-26T19:40:51.210Z,3.40
2019-01-26T19:43:20.425Z,3.40
2019-01-26T19:45:49.566Z,3.40
2019-01-26T19:48:19.848Z,3.40
2019-01-26T19:50:49.141Z,3.50
2019-01-26T19:53:18.367Z,3.50
2019-01-26T19:55:47.468Z,3.50
2019-01-26T19:58:16.642Z,3.50
2019-01-26T20:00:45.873Z,3.60
2019-01-26T20:03:15.080Z,3.50
2019-01-26T20:05:48.060Z,3.60
2019-01-26T20:08:15.564Z,3.50
2019-01-26T20:10:44.858Z,3.50
2019-01-26T20:13:14.053Z,3.50
2019-01-26T20:15:43.249Z,3.50
2019-01-26T20:18:12.458Z,3.50
2019-01-26T20:20:41.846Z,3.60
2019-01-26T20:23:11.060Z,3.60
2019-01-26T20:25:40.140Z,3.60
2019-01-26T20:28:09.274Z,3.50
2019-01-26T20:30:38.626Z,3.50
2019-01-26T20:33:07.830Z,3.50
2019-01-26T20:35:37.074Z,3.50
2019-01-26T20:38:06.369Z,3.50
2019-01-26T20:40:35.835Z,3.50
2019-01-26T20:43:05.040Z,3.50
2019-01-26T20:45:34.398Z,3.50
2019-01-26T20:48:03.789Z,3.60
2019-01-26T20:50:32.950Z,3.50
2019-01-26T20:53:02.053Z,3.50
2019-01-26T20:55:31.440Z,3.50
2019-01-26T20:58:00.837Z,3.60
2019-01-26T21:00:32.180Z,3.60
2019-01-26T21:03:05.750Z,3.60
2019-01-26T21:05:34.830Z,3.60
2019-01-26T21:08:04.278Z,3.60
2019-01-26T21:10:33.401Z,3.70
2019-01-26T21:13:03.170Z,3.70
2019-01-26T21:15:32.950Z,3.70
2019-01-26T21:18:02.018Z,3.70
2019-01-26T21:20:31.097Z,3.70
2019-01-26T21:23:00.080Z,3.90
2019-01-26T21:25:29.149Z,3.90
2019-01-26T21:27:58.257Z,3.90
2019-01-26T21:30:29.721Z,4.00
2019-01-26T21:32:58.661Z,4.00
2019-01-26T21:35:27.502Z,3.90
2019-01-26T21:37:56.501Z,3.90
2019-01-26T21:40:27.220Z,4.00
2019-01-26T21:42:56.162Z,3.90
2019-01-26T21:45:25.317Z,3.90
2019-01-26T21:50:15.715Z,3.90
2019-01-26T21:52:44.709Z,3.90
2019-01-26T21:55:13.810Z,4.00
2019-01-26T21:57:42.702Z,4.00
2019-01-26T22:00:31.352Z,4.00
2019-01-26T22:03:00.776Z,3.90
2019-01-26T22:05:29.641Z,3.90
2019-01-26T22:07:58.388Z,3.80
2019-01-26T22:10:28.854Z,3.80
2019-01-26T22:12:57.445Z,3.80
2019-01-26T22:15:26.531Z,3.80
2019-01-26T22:17:55.004Z,3.80
2019-01-26T22:20:26.103Z,3.90
2019-01-26T22:22:54.654Z,3.80
2019-01-26T22:25:23.185Z,3.80
2019-01-26T22:27:52.633Z,3.80
2019-01-26T22:30:23.965Z,3.80
2019-01-26T22:32:52.556Z,3.70
2019-01-26T22:35:21.460Z,3.70
2019-01-26T22:37:49.934Z,3.80
2019-01-26T22:40:21.137Z,3.80
2019-01-26T22:42:49.609Z,3.80
2019-01-26T22:45:18.156Z,3.80
2019-01-26T22:47:46.560Z,3.80
2019-01-26T22:50:17.517Z,3.80
2019-01-26T22:52:46.181Z,3.80
2019-01-26T22:55:17.388Z,3.80
2019-01-26T22:57:45.869Z,3.70
2019-01-26T23:00:42.806Z,3.70
2019-01-26T23:03:11.376Z,3.70
2019-01-26T23:05:54.809Z,3.70
2019-01-26T23:08:28.990Z,3.70
2019-01-26T23:11:09.633Z,3.60
2019-01-26T23:13:40.087Z,3.60
2019-01-26T23:16:17.569Z,3.60
2019-01-26T23:18:49.065Z,3.60
2019-01-26T23:21:40.109Z,3.60
2019-01-26T23:24:34.044Z,3.60
2019-01-26T23:27:23.657Z,3.60
2019-01-26T23:30:19.321Z,3.50
2019-01-26T23:32:47.726Z,3.50
2019-01-26T23:35:16.473Z,3.50
2019-01-26T23:37:44.869Z,3.50
2019-01-26T23:40:13.442Z,3.50
2019-01-26T23:42:41.837Z,3.50
2019-01-26T23:45:10.418Z,3.50
2019-01-26T23:47:38.821Z,3.50
2019-01-26T23:50:08.906Z,3.40
2019-01-26T23:52:37.305Z,3.50
2019-01-26T23:55:08.586Z,3.50
2019-01-26T23:57:37.046Z,3.60
